Thursday, January 17, 2019, 8:21 PM EST
Back to Local

KART, Watertown International Airport

Location: Dexter, NY, United States Lat: 43.983
Local Time: 8:21 PM EST ( 1:21 GMT) Lon: -76.033
Time Zone: US/Eastern Elev: 324 ft

Show me the last for .
Show Coded

Time T Td Feel RH Dir Speed Gust Alt SLP Vis Weather Sky Remarks
2019-01-17 19:56 14 5 1 66 70° 10 - 30.18 30.22 10 OVC075 None
2019-01-17 18:56 14 3 3 60 60° 8 - 30.21 30.25 10 BKN080 OVC100 6-hr Min Temp (7pm): 12.9°F
6-hr Max Temp (7pm): 19.0°F
2019-01-17 17:56 13 3 3 63 60° 7 - 30.23 30.27 10 FEW110 None
2019-01-17 16:56 14 4 4 63 60° 7 - 30.25 30.29 10 CLR None
2019-01-17 15:56 16 5 6 61 40° 7 - 30.27 30.31 10 CLR None
2019-01-17 14:56 17 5 9 58 60° 6 - 30.29 30.33 10 CLR None
2019-01-17 13:56 17 5 12 58 80° 3 - 30.31 30.35 10 CLR None
2019-01-17 12:56 18 5 13 56 10° 3 - 30.34 30.38 10 CLR 6-hr Min Temp (1pm): -6.0°F
6-hr Max Temp (1pm): 18.0°F
2019-01-17 11:56 16 3 - 55 - Calm - 30.38 30.41 10 CLR None
2019-01-17 10:56 12 0 6 57 360° 3 - 30.42 30.46 10 CLR None
2019-01-17 09:56 5 -3 - 68 - Calm - 30.43 30.46 10 CLR None
2019-01-17 08:56 -1 -7 -9 74 80° 3 - 30.43 30.47 10 CLR None
2019-01-17 07:56 -6 -10 - 82 - Calm - 30.43 30.47 10 CLR None
2019-01-17 06:56 -6 -10 -17 82 70° 5 - 30.43 30.46 10 CLR 24-hr Precip Total (7am): 0.03"
6-hr Min Temp (7am): -8.0°F
6-hr Max Temp (7am): -0.9°F
2019-01-17 05:56 -6 -10 -17 82 90° 5 - 30.42 30.46 10 CLR None
2019-01-17 04:56 -4 -9 -16 78 90° 6 - 30.40 30.44 10 CLR None
2019-01-17 03:56 -5 -9 -16 82 80° 5 - 30.39 30.42 10 CLR None
2019-01-17 02:56 -5 -9 -16 82 80° 5 - 30.39 30.42 10 CLR None
2019-01-17 01:56 -6 -10 -17 82 70° 5 - 30.38 30.42 10 CLR None
2019-01-17 00:56 -2 -7 -12 78 80° 5 - 30.37 30.40 10 CLR 6-hr Min Temp (1am): -4.0°F
6-hr Max Temp (1am): 17.1°F
2019-01-16 23:56 1 -5 -7 74 80° 3 - 30.36 30.39 10 CLR 24-hr Min Temp (12am): 1.0°F
24-hr Max Temp (12am): 34.0°F
2019-01-16 22:56 4 -3 -7 72 50° 6 - 30.34 30.37 10 CLR None
2019-01-16 21:56 8 -3 -4 59 50° 8 - 30.32 30.34 10 CLR None
2019-01-16 20:56 9 -3 -3 57 60° 8 - 30.30 30.32 10 CLR None

Support USWX by starting your Amazon purchase here.